Tiempo atmosférico en la estación meteorológica de Pamplona Aeropuerto, Navarra (459 m.)



Fecha
DESCASC
Temp. máxima en grados centígrados (hora)
DESCASC
Temp. mínima en grados centígrados (hora)
DESCASC
Temp. media en grados centígrados
DESCASC
Racha de viento máxima en m/sg (hora)
DESCASC
Velocidad máxima media en intervalos de 10 minutos(hora)
DESCASC
Precipitaciones diarias en mm
DESCASC
Precipitaciones de 00:00 a 06:00 en mm
DESCASC
Precipitaciones de 06:00 a 12:00 en mm
DESCASC
Precipitaciones de 12:00 a 18:00 en mm
DESCASC
Precipitaciones de 18:00 a 24:00 en mm
DESCASC
22-01-2020 10.5 (15:20) 0 (09:10) 5.3 3.61 (02:00) 2.5 (02:00) 0.2 0 0 0.1 0.1
21-01-2020 3.2 (21:30) 0.4 (00:10) 1.8 9.72 (11:10) 6.94 (12:50) 0 0 0 0 0
20-01-2020 2.9 (14:20) -0.8 (08:50) 1.1 15.28 (00:10) 8.06 (00:10) 0 0 0 0 0
19-01-2020 5.8 (05:30) 2 (00:00) 3.9 16.39 (22:00) 11.39 (22:20) 5.6 5.6 0 0 0
18-01-2020 11.4 (13:50) -0.2 (00:00) 5.6 10.28 (20:50) 6.67 (20:50) 13 0 0 0 13
17-01-2020 12.1 (00:50) 2 (00:00) 7.1 8.89 (01:30) 6.39 (13:40) 2.2 0 2.1 0.1 0
16-01-2020 15.5 (14:40) -0.9 (-00:0) 7.3 13.89 (13:50) 9.72 (13:50) 0 0 0 0 0
15-01-2020 12.1 (15:50) 2 (00:00) 7.1 12.5 (09:50) 8.61 (10:00) 0 0 0 0 0
14-01-2020 10 (15:50) -1.3 (-00:0) 4.4 10.28 (14:40) 7.22 (14:50) 0 0 0 0 0
13-01-2020 7.6 (16:10) -3.1 (-00:0) 2.3 4.72 (20:20) 3.61 (23:40) 0 0 0 0 0
12-01-2020 12.4 (15:00) -4.2 (-00:0) 4.1 7.78 (15:00) 5.56 (14:10) 0 0 0 0 0
11-01-2020 11 (16:10) -0.4 (00:00) 5.3 5.83 (00:50) 3.61 (02:30) 0 0 0 0 0
10-01-2020 9.3 (13:40) 3.9 (00:00) 6.6 12.5 (16:20) 8.33 (15:20) 0.3 0 0.3 0 0
09-01-2020 7.5 (14:30) 1.6 (00:00) 4.6 6.11 (00:40) 4.44 (00:40) 1.5 0 0 0 1.5
08-01-2020 15.7 (12:50) 2.1 (00:00) 8.9 6.67 (23:00) 5 (23:10) 0 0 0 0 0
07-01-2020 14.2 (16:40) -1.5 (-00:0) 6.3 7.78 (17:30) 5.28 (17:30) 0 0 0 0 0
06-01-2020 8.6 (15:30) -2.9 (-00:0) 2.9 4.17 (10:20) 3.06 (22:10) 0 0 0 0 0
05-01-2020 14.4 (14:50) 0 (00:00) 7.2 8.33 (10:40) 5.28 (15:20) 0 0 0 0 0
04-01-2020 11.1 (14:50) 3.6 (00:00) 7.4 11.39 (15:30) 7.78 (15:30) 0 0 0 0 0
03-01-2020 6 (18:30) -0.9 (-00:0) 2.6 3.06 (00:50) 2.22 (01:20) 0 0 0 0 0
02-01-2020 2.7 (16:00) -1.4 (-00:0) 0.7 5.83 (19:30) 3.89 (19:30) 0 0 0 0 0
01-01-2020 2.9 (14:40) 0.7 (00:00) 1.8 3.61 (04:40) 2.5 (05:40) 0 0 0 0 0
31-12-2019 2.2 (16:20) 0.1 (00:00) 1.2 3.61 (02:10) 2.22 (02:30) 0 0 0 0 0
30-12-2019 2.4 (15:00) -0.6 (-00:0) 0.9 4.17 (10:00) 2.5 (09:50) 0 0 0 0 0
29-12-2019 5.4 (16:20) -2.6 (-00:0) 1.4 -- (--) -- (--) 0 0 0 0 0
28-12-2019 16.7 (15:20) -0.5 (-00:0) 8.1 6.11 (17:00) 4.17 (16:40) 0 0 0 0 0
27-12-2019 12.1 (16:40) -2.4 (-00:0) 4.9 -- (--) -- (--) 0 0 0 0 0

Gráficas

Temp. máximas Temp. mínimas Temp. medias Precipitaciones Rachas de viento máximas Velocidades máximas media en intervalos de 10 minutos

Datos horarios

Fecha y hora oficial Temperatura (ºC) Velocidad del viento (km/h) Dirección del viento Racha (km/h) Dirección de racha Precipitación (mm) Presión (hPa) Tendencia (hPa) Humedad (%)
2020-01-25 23:00:00 7 4 Sudoeste 11 Noroeste 0 964.4 0.3 94
2020-01-25 22:00:00 7.2 6 Oeste 13 Este 0 964.5 0.7 94
2020-01-25 21:00:00 7.3 8 Oeste 15 Oeste 0 964.3 0.9 94
2020-01-25 20:00:00 7.9 6 Sur 15 Sur 0.2 964.1 0.8 88
2020-01-25 19:00:00 8.4 3 Nordeste 15 Oeste 0 963.8 0.5 84
2020-01-25 18:00:00 9.2 9 Sudeste 22 Sudeste 0 963.4 -0.5 76
2020-01-25 17:00:00 9.5 16 Sudeste 28 Sudeste 0 963.3 -1.3 74
2020-01-25 16:00:00 9.2 15 Sudeste 22 Sudeste 0 963.3 -2.3 76
2020-01-25 15:00:00 8.5 14 Este 22 Este 0 963.9 -2.2 82
2020-01-25 14:00:00 8.5 17 Sudeste 26 Sudeste 0 964.6 -1.4 83
2020-01-25 13:00:00 7.8 2 Este 9 Este 0 965.6 0 84
2020-01-25 12:00:00 7.1 4 Este 9 Sudeste 0 966.1 0.8 83
2020-01-25 11:00:00 5.3 4 Nordeste 13 Oeste 0 966 0.9 91
2020-01-25 10:00:00 3.9 5 Nordeste 13 Nordeste 0 965.6 0.7 92
2020-01-25 09:00:00 3.4 0 Calma 8 Este 0 965.3 0.2 94
2020-01-25 08:00:00 4 2 Norte 8 Norte 0 965.1 -0.1 94
2020-01-25 07:00:00 4.3 3 Nordeste 9 Oeste 0 964.9 -0.7 92
2020-01-25 06:00:00 4.7 4 Noroeste 9 Sudeste 0 965.1 -0.7 90
2020-01-25 05:00:00 4.4 2 Noroeste 8 Sudoeste 0 965.2 -0.8 91
2020-01-25 04:00:00 4.9 5 Oeste 8 Oeste 0 965.6 -0.8 90
2020-01-25 03:00:00 5 5 Norte 8 Nordeste 0 965.8 -0.5 90
2020-01-25 02:00:00 5 6 Oeste 9 Sudoeste 0 966 -0.5 86
2020-01-25 01:00:00 5.8 3 Sudoeste 17 Sudeste 0 966.4 -0.5 83
2020-01-25 00:00:00 7.5 6 Sudeste 22 Sudeste 0 966.3 -0.6 76
2020-01-24 23:00:00 8.4 10 Sudeste 17 Sudeste 0 966.5 -0.2 73
2020-01-24 22:00:00 8 13 Sudeste 18 Sudeste 0 966.9 0.8 76
2020-01-24 21:00:00 8 9 Sur 13 Sudoeste 0 966.9 1.1 77
2020-01-24 20:00:00 8.3 6 Sudoeste 11 Sudoeste 0 966.7 0.8 74
2020-01-24 19:00:00 9.1 11 Sur 21 Sudeste 0 966.1 0.2 69
2020-01-24 18:00:00 9.7 10 Sudeste 18 Sudeste 0 965.8 -0.5 68
2020-01-24 17:00:00 10.4 3 Este 11 Noroeste 0 965.9 -1.2 71
2020-01-24 16:00:00 11.1 3 Oeste 15 Sudoeste 0 965.9 -1.8 69
2020-01-24 15:00:00 11.6 8 Sudoeste 13 Sudoeste 0 966.3 -- 67
2020-01-24 14:00:00 11.2 9 Sur 15 Sur 0 967.1 -1.1 66
2020-01-24 13:00:00 10.7 2 Sudoeste 9 Este 0 967.7 -0.4 68
2020-01-24 12:00:00 -- -- -- -- -- -- -- -- --
2020-01-24 11:00:00 7.1 4 Noroeste 11 Oeste 0 968.2 -- 84
2020-01-24 10:00:00 5.5 6 Oeste 11 Norte 0 968.1 -- 91
2020-01-24 09:00:00 4.9 4 Este -- -- -- 967.7 -- 91
2020-01-24 08:00:00 -- -- -- -- -- -- -- -- --
2020-01-24 07:00:00 -- -- -- -- -- -- -- -- --
2020-01-24 06:00:00 -- -- -- -- -- -- -- -- --
2020-01-24 05:00:00 -- -- -- -- -- -- -- -- --
2020-01-24 04:00:00 -- -- -- -- -- -- -- -- --
2020-01-24 03:00:00 -- -- -- -- -- -- -- -- --
2020-01-24 02:00:00 -- -- -- -- -- -- -- -- --
2020-01-24 01:00:00 -- -- -- -- -- -- -- -- --
2020-01-24 00:00:00 -- -- -- -- -- -- -- -- --
2020-01-23 23:00:00 -- -- -- -- -- -- -- -- --
2020-01-23 22:00:00 -- -- -- -- -- -- -- -- --
2020-01-23 21:00:00 6.7 18 Este 33 Sudeste 0 967.5 0.9 77
2020-01-23 20:00:00 6.6 21 Este 32 Este 0 967.1 0.9 78
2020-01-23 19:00:00 6.7 21 Este 30 Este 0 966.8 1.2 80
2020-01-23 18:00:00 6.7 11 Sudeste 21 Sudeste 0 966.6 1.1 84
2020-01-23 17:00:00 6.7 14 Sudeste 21 Sudeste 0 966.2 0.4 86
2020-01-23 16:00:00 7.2 8 Sur 21 Sur 0 965.6 -0.8 87
2020-01-23 15:00:00 7 8 Sudeste 11 Sudeste 0.1 965.5 -1.3 91
2020-01-23 14:00:00 6.7 5 Este 9 Sudeste 0.3 965.8 -1 92
2020-01-23 13:00:00 6.5 0 Calma 8 Sudeste 0 966.4 -0.2 91
2020-01-23 12:00:00 6.2 0 Calma 8 Sudeste 0 966.8 0.4 93
2020-01-23 11:00:00 5.6 5 Sur 9 Sur 0 966.8 0.9 96
2020-01-23 10:00:00 5 5 Sudeste 8 Sudeste 0.5 966.6 0.3 96
2020-01-23 09:00:00 4.5 6 Sur 11 Sudoeste 1.4 966.4 0.6 96
2020-01-23 08:00:00 4.6 4 Sur 11 Sudoeste 0.8 965.9 -0.3 95
2020-01-23 07:00:00 4.8 7 Sur 11 Sur 0 966.3 0 89
2020-01-23 06:00:00 4.9 4 Oeste 9 Sudoeste 0 965.8 -0.7 90
2020-01-23 05:00:00 5.4 4 Nordeste 13 Sudeste 0 966.2 -0.3 87
2020-01-23 04:00:00 6.2 10 Este 17 Sudeste 0 966.3 -0.6 82
2020-01-23 03:00:00 5.8 4 Sudeste 21 Sudeste 0 966.5 -0.5 86
2020-01-23 02:00:00 5.7 13 Sudeste 18 Sudeste 0 966.5 0.1 89
2020-01-23 01:00:00 5.4 5 Sudeste 11 Sur 0 966.9 0.7 94
2020-01-23 00:00:00 5.3 8 Sur 11 Sur 0 967 0.7 94
2020-01-22 23:00:00 5.9 6 Este 9 Este 0 966.4 -0.1 91
2020-01-22 22:00:00 6 5 Noroeste -- -- 0 966.2 0.1 90
2020-01-22 21:00:00 6.5 5 Oeste 9 Sudoeste 0.1 966.3 0.1 89
2020-01-22 20:00:00 7 4 Nordeste 8 Norte 0 966.5 0.2 85
2020-01-22 19:00:00 7.4 3 Noroeste 9 Oeste 0 966.1 -0.5 84
2020-01-22 18:00:00 8.4 6 Noroeste 11 Noroeste 0.1 966.2 -0.9 80
2020-01-22 17:00:00 9.4 2 Noroeste 5 Oeste 0 966.3 -1.5 72
2020-01-22 16:00:00 9.6 4 Oeste 9 Sudoeste 0 966.6 -2.3 69
2020-01-22 15:00:00 9.7 3 Noroeste 9 Oeste 0 967.1 -3 68
2020-01-22 14:00:00 9.4 4 Oeste 13 Oeste 0 967.8 -2.3 68
2020-01-22 13:00:00 7.5 3 Oeste 9 Oeste 0 968.9 -1 74
2020-01-22 12:00:00 5.7 3 Nordeste 8 Este 0 970.1 0.6 82
2020-01-22 11:00:00 4.7 3 Sudeste 5 Este 0 970.1 0.6 84
2020-01-22 10:00:00 1.6 3 Sudeste 11 Sur 0 969.9 0.6 96
2020-01-22 09:00:00 0.3 4 Sur 8 Sudeste 0 969.5 0 96
2020-01-22 08:00:00 0.9 4 Sudeste 8 Este 0 969.5 0.1 95
2020-01-22 07:00:00 1.2 0 Calma 9 Oeste 0 969.3 -1.2 95
2020-01-22 06:00:00 1.7 3 Este 8 Este 0 969.5 -1.4 93
2020-01-22 05:00:00 2.2 4 Norte 5 Norte 0 969.4 -1 94
2020-01-22 04:00:00 2.1 0 Calma 11 Nordeste 0 970.5 -0.2 94
2020-01-22 03:00:00 1.8 4 Este 11 Sur 0 970.9 0 94
2020-01-22 02:00:00 1.2 9 Sur -- -- 0 970.4 -0.6 96
2020-01-22 01:00:00 0.7 8 Sudeste 11 Sudeste 0 970.7 -0.3 93
2020-01-22 00:00:00 1.5 0 Calma 8 Sudeste 0 970.9 -0.5 91
2020-01-21 23:00:00 2.9 11 Noroeste 18 Noroeste 0 971 -0.3 89
2020-01-21 22:00:00 3.1 13 Noroeste 22 Noroeste 0 971 -0.3 87
2020-01-21 21:00:00 2.7 15 Noroeste 21 Noroeste 0 971.4 -0.1 87
2020-01-21 20:00:00 1.9 10 Oeste 17 Noroeste 0 971.3 -0.2 86
2020-01-21 19:00:00 2.5 11 Noroeste 21 Norte 0 971.3 -0.5 84
2020-01-21 18:00:00 2.8 19 Norte 32 Norte 0 971.5 -0.7 81
2020-01-21 17:00:00 2.7 18 Noroeste 32 Norte 0 971.5 -1.1 82
2020-01-21 16:00:00 2.6 18 Noroeste 35 Noroeste 0 971.8 -1.3 82
2020-01-21 15:00:00 2.4 20 Noroeste 33 Noroeste 0 972.2 -1.6 82
2020-01-21 14:00:00 2.5 24 Noroeste 35 Noroeste 0 972.6 -1.3 81
2020-01-21 13:00:00 2.5 21 Noroeste 35 Noroeste 0 973.1 -0.8 80
2020-01-21 12:00:00 2.8 22 Norte 35 Noroeste 0 973.8 -0.2 78
2020-01-21 11:00:00 2.5 23 Noroeste 33 Noroeste 0 973.9 -0.8 78
2020-01-21 10:00:00 1.9 17 Noroeste 33 Norte 0 973.9 -0.2 78
2020-01-21 09:00:00 1.2 19 Noroeste 32 Noroeste 0 974 0.2 79
2020-01-21 08:00:00 1.3 18 Norte 30 Noroeste 0 974.7 0.5 77
2020-01-21 07:00:00 1.3 21 Norte 30 Norte 0 974.1 -0.6 75
2020-01-21 06:00:00 1.6 18 Noroeste 30 Noroeste 0 973.8 -1.5 73
2020-01-21 05:00:00 2 21 Noroeste 30 Norte 0 974.2 -1.5 72
2020-01-21 04:00:00 1.9 14 Noroeste 22 Noroeste 0 974.7 -1.5 72
2020-01-21 03:00:00 1.6 13 Noroeste 22 Noroeste 0 975.3 -1.2 72
2020-01-21 02:00:00 1.2 13 Noroeste 26 Noroeste 0 975.7 -0.8 71
2020-01-21 01:00:00 1 19 Noroeste 26 Noroeste 0 976.2 -0.3 72
2020-01-21 00:00:00 0.5 15 Noroeste 28 Noroeste 0 976.5 -0.2 75
2020-01-20 23:00:00 0.6 17 Noroeste 32 Noroeste 0 976.5 -0.4 73
2020-01-20 22:00:00 0.7 21 Noroeste 30 Noroeste 0 976.5 0 73
2020-01-20 21:00:00 0.8 21 Noroeste 30 Noroeste 0 976.7 0.5 73
2020-01-20 20:00:00 0.7 18 Noroeste 32 Noroeste 0 976.9 0.9 74
2020-01-20 19:00:00 0.8 20 Noroeste 37 Noroeste 0 976.5 0.6 75
2020-01-20 18:00:00 1.3 25 Noroeste 39 Norte 0 976.2 0.6 72
2020-01-20 17:00:00 2.1 24 Noroeste 35 Norte 0 976 -0.1 67
2020-01-20 16:00:00 2.6 27 Noroeste 37 Noroeste 0 975.9 -0.8 62
2020-01-20 15:00:00 2.8 25 Noroeste 39 Noroeste 0 975.6 -1.6 61
2020-01-20 14:00:00 2.7 27 Noroeste 41 Noroeste 0 976.1 -1.4 61
2020-01-20 13:00:00 2.6 25 Noroeste 37 Noroeste 0 976.7 -0.2 61
2020-01-20 12:00:00 2.2 23 Noroeste 32 Noroeste 0 977.2 0.5 62
2020-01-20 11:00:00 1.3 16 Norte 30 Norte 0 977.5 1 62
2020-01-20 10:00:00 0.2 15 Norte 37 Nordeste 0 976.9 0.9 68
2020-01-20 09:00:00 -0.6 13 Norte 37 Norte 0 976.7 0.7 71
2020-01-20 08:00:00 -0.2 10 Norte 30 Nordeste 0 976.5 0.3 68
2020-01-20 07:00:00 -0.2 15 Norte 37 Norte 0 976 -0.7 69
2020-01-20 06:00:00 0.5 28 Norte 46 Norte 0 976 -1.2 65
2020-01-20 05:00:00 0.5 26 Norte 41 Norte 0 976.2 -1.5 66
2020-01-20 04:00:00 0.6 22 Norte 41 Norte 0 976.7 -1.2 67
2020-01-20 03:00:00 0.9 23 Norte 42 Nordeste 0 977.2 -0.9 67
2020-01-20 02:00:00 1.2 25 Norte 46 Nordeste 0 977.7 0.1 66
2020-01-20 01:00:00 1.6 25 Norte 55 Nordeste 0 977.9 0.5 65
2020-01-20 00:00:00 2 30 Nordeste 59 Norte 0 978.1 1.1 62
2020-01-19 23:00:00 2.3 33 Norte 59 Nordeste 0 977.6 1.2 61
2020-01-19 22:00:00 2.6 36 Nordeste 59 Nordeste 0 977.4 1.8 59
2020-01-19 21:00:00 3.2 32 Nordeste 58 Norte 0 977 1.9 56
2020-01-19 20:00:00 3.6 36 Norte 55 Nordeste 0 976.4 1.6 54
2020-01-19 19:00:00 3.7 32 Norte 58 Nordeste 0 975.6 1.3 55
2020-01-19 18:00:00 4.1 33 Norte 58 Nordeste 0 975.1 0.9 56
2020-01-19 17:00:00 4.5 31 Nordeste 55 Nordeste 0 974.8 0.5 56
2020-01-19 16:00:00 4.9 40 Norte 58 Norte 0 974.3 -0.4 61
2020-01-19 15:00:00 5 31 Norte 58 Norte 0 974.2 -0.1 63
2020-01-19 14:00:00 4.1 37 Norte 54 Norte 0 974.3 0.7 70
2020-01-19 13:00:00 4 30 Norte 54 Norte 0 974.7 2.7 73
2020-01-19 12:00:00 4.5 32 Norte 55 Norte 0 974.3 3.5 73
2020-01-19 11:00:00 4.3 21 Norte 48 Norte 0 973.6 3.9 74
2020-01-19 10:00:00 4.8 32 Norte 48 Norte 0 972 3.2 70
2020-01-19 09:00:00 5.2 34 Nordeste 52 Nordeste 0 970.8 3.2 70
2020-01-19 08:00:00 5.4 35 Nordeste 52 Nordeste 0 969.7 2.6 75
2020-01-19 07:00:00 5.6 26 Norte 46 Nordeste 0 968.8 1.6 78
2020-01-19 06:00:00 5.4 19 Norte 45 Norte 0 967.6 0.2 84
2020-01-19 05:00:00 5 8 Norte 17 Noroeste 0 967.1 -0.6 92
2020-01-19 04:00:00 3.9 5 Oeste 11 Noroeste 0.1 967.2 -0.4 97
2020-01-19 03:00:00 4 6 Noroeste 9 Noroeste 0.4 967.4 -0.2 97
2020-01-19 02:00:00 4.2 0 Calma -- -- 1.8 967.7 0.4 97
2020-01-19 01:00:00 4.4 7 Sur 9 Sur 3.3 967.6 0.1 97
2020-01-19 00:00:00 4.4 0 Calma 8 Noroeste 1.9 967.6 0.9 97
2020-01-18 23:00:00 4.5 5 Noroeste 15 Norte 1.7 967.3 1.7 97
2020-01-18 22:00:00 4.7 10 Noroeste 35 Noroeste 3.2 967.5 1.1 96
2020-01-18 21:00:00 5.5 23 Norte 37 Norte 5.5 966.7 0.8 97
2020-01-18 20:00:00 7.3 12 Este 26 Este 0.5 965.6 -0.9 86
2020-01-18 19:00:00 7.8 12 Este 32 Este 0.2 966.4 -0.5 80
2020-01-18 18:00:00 8.2 22 Sudeste 30 Sudeste 0 965.9 -1.7 74
2020-01-18 17:00:00 8.4 19 Este 33 Este 0 966.5 -2.3 74
2020-01-18 16:00:00 9.9 15 Este 26 Sur 0 966.9 -4.1 61
2020-01-18 15:00:00 10.8 17 Sur 35 Sur 0 967.6 -5 59
2020-01-18 14:00:00 10.7 18 Sur 30 Sudeste 0 968.8 -4.7 58
2020-01-18 13:00:00 8.3 5 Norte 13 Noroeste 0 971 -3.2 66
2020-01-18 12:00:00 7.3 5 Noroeste 11 Norte 0 972.6 -2.1 73
2020-01-18 11:00:00 3.7 4 Oeste 8 Oeste 0 973.5 -1.5 90
2020-01-18 10:00:00 2.2 4 Nordeste 9 Oeste 0 974.2 -1 95
2020-01-18 09:00:00 1.1 5 Oeste 11 Oeste 0 974.7 -1.1 95
2020-01-18 08:00:00 1.7 8 Oeste 13 Oeste 0 975 -1 93
2020-01-18 07:00:00 1.4 10 Este 13 Este 0 975.2 -1.1 94
2020-01-18 06:00:00 1.1 4 Nordeste 8 Nordeste 0 975.8 -1.2 95
2020-01-18 05:00:00 0.8 0 Calma 5 Norte 0 976 -1.1 95
2020-01-18 04:00:00 0.6 6 Sudoeste 9 Sudoeste 0 976.3 -1.2 95
2020-01-18 03:00:00 0 3 Noroeste 8 Oeste 0 977 -1.1 95
2020-01-18 02:00:00 0.6 0 Calma 5 Nordeste 0 977.1 -1.1 93
2020-01-18 01:00:00 1.2 -- -- -- -- 0 977.5 -1 91
2020-01-18 00:00:00 2.5 4 Nordeste 13 Sur 0 978.1 -0.3 87
2020-01-17 23:00:00 2.8 5 Este 8 Sudeste 0 978.2 -0.1 87
2020-01-17 22:00:00 3.4 7 Sur 15 Sudeste 0 978.5 0.7 84
2020-01-17 21:00:00 5.3 12 Norte 17 Noroeste 0 978.4 1.2 78
2020-01-17 20:00:00 5.5 4 Norte 13 Nordeste 0 978.3 1.9 76
2020-01-17 19:00:00 6.1 2 Sudeste 13 Norte 0 977.8 2 75
2020-01-17 18:00:00 7 7 Norte 32 Norte 0 977.2 1.9 70
2020-01-17 17:00:00 7.9 17 Noroeste 28 Noroeste 0 976.4 1.1 70
2020-01-17 16:00:00 8.1 10 Noroeste 26 Oeste 0 975.8 0.6 68
2020-01-17 15:00:00 9 18 Norte 30 Norte 0 975.3 0.1 68
2020-01-17 14:00:00 9.1 15 Norte 32 Norte 0 975.3 1.1 72
2020-01-17 13:00:00 8.6 8 Norte 21 Norte 0.1 975.2 2.4 76
2020-01-17 12:00:00 7.6 17 Norte 28 Norte 0 975.2 2.7 86
2020-01-17 11:00:00 7.8 12 Norte 28 Oeste 1.2 974.2 2.4 92
2020-01-17 10:00:00 7.7 7 Sur 13 Sur 0 972.8 2 89
2020-01-17 09:00:00 7.1 3 Sur 18 Sur 0.8 972.5 2.1 89
2020-01-17 08:00:00 7.6 12 Noroeste 18 Noroeste 0.1 971.8 1.3 81
2020-01-17 07:00:00 8.7 6 Sudoeste -- -- -- 970.8 0.1 70
2020-01-17 06:00:00 8.4 3 Sudoeste 17 Oeste 0 970.4 -0.1 73
2020-01-17 05:00:00 8.4 8 Noroeste 15 Norte 0 970.5 0.7 75
2020-01-17 04:00:00 9.8 6 Sur 18 Sur 0 970.7 0.8 68
2020-01-17 03:00:00 10.4 14 Sur 28 Sur 0 970.5 0.5 66
2020-01-17 02:00:00 11 11 Sur 32 Sur 0 969.8 -0.3 63
2020-01-17 01:00:00 11.5 15 Sur 28 Sudoeste 0 969.9 0.3 62
2020-01-17 00:00:00 11.5 12 Sudeste 33 Sur 0 970 0.4 60
2020-01-16 23:00:00 11.8 23 Sur 42 Sur 0 970.1 1.1 58
2020-01-16 22:00:00 12.4 31 Sur 45 Sur 0 969.6 0.8 55
2020-01-16 21:00:00 12.1 26 Sur 46 Sur 0 969.6 0.9 57
2020-01-16 20:00:00 12.4 30 Sur 46 Sur 0 969 0.7 60
2020-01-16 19:00:00 12 24 Sudeste 39 Sur 0 968.8 -0.1 64
2020-01-16 18:00:00 12.6 18 Sudeste 41 Sur 0 968.7 -0.6 63
2020-01-16 17:00:00 13.7 26 Sur 42 Sur 0 968.3 -2.1 60
2020-01-16 16:00:00 14.4 21 Sur 39 Sur 0 968.9 -2.1 57
2020-01-16 15:00:00 14.3 27 Sur 45 Sur 0 969.3 -2.7 58
2020-01-16 14:00:00 14.6 33 Sur 50 Sur 0 970.4 -2 57
2020-01-16 13:00:00 14.2 33 Sur 46 Sur 0 971 -1.7 58
2020-01-16 12:00:00 13.3 5 Este 15 Nordeste 0 972 -0.8 63
2020-01-16 11:00:00 8.1 2 Norte 11 Sudoeste 0 972.4 0.2 83
2020-01-16 10:00:00 3 7 Este 17 Sudeste 0 972.7 0.9 92
2020-01-16 09:00:00 -0.4 3 Sudeste 9 Sudoeste 0 972.8 0.9 96
2020-01-16 08:00:00 -0.5 4 Norte 9 Sudoeste 0 972.2 0 96
2020-01-16 07:00:00 -0.3 4 Oeste 11 Sudeste 0 971.8 -0.6 97
2020-01-16 06:00:00 0.1 0 Calma 5 Sur 0 971.9 -0.2 97
2020-01-16 05:00:00 -0.2 3 Norte 9 Oeste 0 972.2 0 96
2020-01-16 04:00:00 0.2 5 Sudeste 8 Sudeste 0 972.4 -0.1 96
2020-01-16 03:00:00 0.7 2 Sudoeste 9 Oeste 0 972.1 -0.1 95
2020-01-16 02:00:00 1.4 4 Sudeste 9 Sudoeste 0 972.2 0.2 93
2020-01-16 01:00:00 1.7 3 Sudoeste 13 Oeste 0 972.5 0.4 94
2020-01-16 00:00:00 2.6 2 Noroeste 13 Oeste 0 972.2 0.2 94
2020-01-15 23:00:00 2.5 6 Oeste 11 Sudeste 0 972 0.3 92
2020-01-15 22:00:00 3.8 7 Sudeste 13 Oeste 0 972.1 1 90
2020-01-15 21:00:00 5.1 5 Oeste 13 Oeste 0 972 1.7 84
2020-01-15 20:00:00 6.3 2 Oeste 9 Sudeste 0 971.7 2 81
2020-01-15 19:00:00 7.3 4 Nordeste 11 Norte 0 971.1 1.9 78
2020-01-15 18:00:00 8.8 6 Oeste 11 Oeste 0 970.3 1.7 69
2020-01-15 17:00:00 10.4 4 Noroeste 21 Sur 0 969.7 0.8 63
2020-01-15 16:00:00 11.9 12 Sur 26 Sudoeste 0 969.2 0 56
2020-01-15 15:00:00 10.8 15 Sudoeste 28 Sudoeste 0 968.6 -1 60
2020-01-15 14:00:00 9.6 6 Nordeste 28 Sur 0 968.9 0 64
2020-01-15 13:00:00 10.2 6 Sur 32 Sur 0 969.2 1.3 60
2020-01-15 12:00:00 9.2 4 Sudeste 13 Nordeste 0 969.6 1.6 63
2020-01-15 11:00:00 7.9 8 Nordeste 41 Sur 0 968.9 1.4 69
2020-01-15 10:00:00 7.5 31 Sur 45 Sur 0 967.9 0.7 70
2020-01-15 09:00:00 5.6 6 Norte 18 Este 0 968 1.4 73
2020-01-15 08:00:00 3.3 14 Nordeste 21 Nordeste 0 967.5 0.5 80
2020-01-15 07:00:00 4.2 2 Nordeste 11 Norte 0 967.2 0.7 75
2020-01-15 06:00:00 4.9 6 Norte 28 Oeste 0 966.6 0.2 71
2020-01-15 05:00:00 5.4 11 Oeste 15 Sudoeste 0 967 0.8 70
2020-01-15 04:00:00 3.9 5 Noroeste 13 Oeste 0 966.5 0 76
2020-01-15 03:00:00 3.2 4 Nordeste 18 Noroeste 0 966.4 -0.3 76
2020-01-15 02:00:00 3.6 10 Norte 17 Norte 0 966.2 -0.4 74
2020-01-15 01:00:00 3.8 4 Noroeste 15 Oeste 0 966.5 0.1 75
2020-01-15 00:00:00 4.3 4 Norte 21 Sur 0 966.7 0.3 73
2020-01-14 23:00:00 4.5 19 Sur 24 Sur 0 966.6 -0.1 72
2020-01-14 22:00:00 4.1 13 Sudeste 22 Sur 0 966.4 -0.1 74
2020-01-14 21:00:00 4.5 3 Sudeste 11 Sur 0 966.4 0.3 68
2020-01-14 20:00:00 3.9 3 Norte 15 Sur 0 966.7 1.2 72
2020-01-14 19:00:00 4.3 8 Sudeste 17 Sudeste 0 966.5 0.7 71
2020-01-14 18:00:00 5.8 6 Este 32 Sur 0 966.1 0.1 66
2020-01-14 17:00:00 8.7 16 Sur 28 Sur 0 965.5 -0.9 55
2020-01-14 16:00:00 9.9 15 Sur 33 Sur 0 965.8 -1 48
2020-01-14 15:00:00 9.3 19 Sudoeste 37 Sudoeste 0 966 -1.8 51
2020-01-14 14:00:00 9.7 18 Sur 35 Sur 0 966.4 -1.5 51
2020-01-14 13:00:00 8.8 23 Sur 33 Sur 0 966.8 -1 53
2020-01-14 12:00:00 5.8 5 Oeste 13 Sur 0 967.8 0.3 70
2020-01-14 11:00:00 3.3 11 Sudeste 21 Sudeste 0 967.9 0.6 77
2020-01-14 10:00:00 1.5 10 Sur 13 Sur 0 967.8 0.9 87
2020-01-14 09:00:00 -0.9 3 Nordeste 9 Sur 0 967.5 0.5 92
2020-01-14 08:00:00 -1.1 6 Sur 13 Sudeste 0 967.3 0.4 94
2020-01-14 07:00:00 -0.6 11 Sudeste 15 Sudeste 0 966.9 -0.4 93
2020-01-14 06:00:00 0 4 Este 18 Sudeste 0 967 0.3 94
2020-01-14 05:00:00 0.3 10 Sudeste 13 Sudeste 0 966.9 -0.3 93
2020-01-14 04:00:00 -0.7 4 Nordeste 9 Nordeste 0 967.3 -0.6 95
2020-01-14 03:00:00 -0.9 5 Este 8 Sur 0 966.7 -1.8 95
2020-01-14 02:00:00 -1.1 6 Oeste 15 Sur 0 967.2 -0.9 95
2020-01-14 01:00:00 -0.6 5 Sur 11 Sudeste 0 967.9 0.4 94
2020-01-14 00:00:00 -0.2 6 Este 15 Sudeste 0 968.5 0.8 95
2020-01-13 23:00:00 -0.2 5 Este 9 Sudeste 0 968.1 0.4 95
2020-01-13 22:00:00 0.7 2 Sudeste 15 Sudeste 0 967.5 -0.3 93
2020-01-13 21:00:00 1.2 4 Sur 17 Sudeste 0 967.7 0 90
2020-01-13 20:00:00 2.1 5 Sur 9 Sur 0 967.7 -0.1 89
2020-01-13 19:00:00 2.6 0 Calma 13 Nordeste 0 967.8 -0.1 87
2020-01-13 18:00:00 4.2 4 Nordeste 9 Norte 0 967.7 -0.6 82
2020-01-13 17:00:00 6.9 5 Noroeste 9 Noroeste 0 967.8 -1.6 73
2020-01-13 16:00:00 6.8 10 Sur 15 Sur 0 967.9 -2.6 73
2020-01-13 15:00:00 6.5 6 Este 13 Sudeste 0 968.3 -3.1 75
2020-01-13 14:00:00 6.2 4 Sur 9 Sudoeste 0 969.4 -2.4 73
2020-01-13 13:00:00 4.6 3 Norte 8 Noroeste 0 970.5 -1 78
2020-01-13 12:00:00 2.6 2 Nordeste 5 Nordeste 0 971.4 -0.1 83
2020-01-13 11:00:00 0.3 2 Noroeste 5 Norte 0 971.8 -0.1 93
2020-01-13 10:00:00 -1.4 2 Sudeste 9 Sudeste 0 971.5 -0.5 96
2020-01-13 09:00:00 -2.4 5 Sudeste -- -- 0 971.5 -0.7 97
2020-01-13 08:00:00 -2.4 3 Sudoeste 5 Sudoeste 0 971.9 -1 97
2020-01-13 07:00:00 -2.5 3 Sudeste 4 Sur 0 972 -1.5 96
2020-01-13 06:00:00 -2 0 Calma 4 Sur 0 972.2 -1.8 97
2020-01-13 05:00:00 -1.9 0 Calma 4 Sudeste 0 972.9 -1.2 97
2020-01-13 04:00:00 -1.9 2 Sudeste 8 Sudeste 0 973.5 -1.2 96
2020-01-13 03:00:00 -1.2 4 Nordeste 8 Nordeste 0 974 -1.1 93
2020-01-13 02:00:00 -0.6 0 Calma 5 Sudoeste 0 974.1 -1.1 93
2020-01-13 01:00:00 0 3 Sudeste 5 Sur 0 974.7 -0.5 95
2020-01-13 00:00:00 0.6 5 Nordeste 9 Nordeste 0 975.1 -0.4 93
2020-01-12 23:00:00 0.8 4 Este 11 Este 0 975.2 -0.4 92
2020-01-12 22:00:00 1.8 5 Este 8 Este 0 975.2 -0.1 89
2020-01-12 21:00:00 3.4 3 Nordeste -- -- 0 975.5 0.4 83
2020-01-12 20:00:00 4.1 5 Este 8 Este 0 975.6 1 80
2020-01-12 19:00:00 6.1 5 Nordeste 18 Norte 0 975.3 1.1 73
2020-01-12 18:00:00 8 13 Norte 22 Norte 0 975.1 0.6 67
2020-01-12 17:00:00 9.9 18 Norte 28 Norte 0 974.6 -0.4 58
2020-01-12 16:00:00 11.6 16 Norte 24 Norte 0 974.2 -1.9 49
2020-01-12 15:00:00 12.3 19 Noroeste 28 Noroeste 0 974.5 -2.8 48
2020-01-12 14:00:00 11.4 15 Noroeste 26 Norte 0 975 -2.4 52
2020-01-12 13:00:00 8.9 10 Noroeste 15 Noroeste 0 976.1 -1 60
2020-01-12 12:00:00 5.9 3 Sudoeste 5 Sudoeste 0 977.3 0.7 69
2020-01-12 11:00:00 2.5 3 Este 5 Este 0 977.4 1 85
2020-01-12 10:00:00 -0.8 3 Sudeste 4 Este 0 977.1 0.6 90
2020-01-12 09:00:00 -3.5 3 Este 5 Este 0 976.6 0.3 96
2020-01-12 08:00:00 -4 0 Calma 5 Sudeste 0 976.4 0.1 95
2020-01-12 07:00:00 -3.6 2 Sur 5 Sudeste 0 976.5 0 95
2020-01-12 06:00:00 -3.3 2 Sudeste 4 Sudeste 0 976.3 0 95
2020-01-12 05:00:00 -2.8 0 Calma -- -- 0 976.3 0.1 96
2020-01-12 04:00:00 -2.3 0 Calma 4 Este 0 976.5 0.2 96
2020-01-12 03:00:00 -2.2 2 Sudeste 5 Sudeste 0 976.3 -0.3 93
2020-01-12 02:00:00 -1.5 0 Calma 5 Este 0 976.2 -0.2 94
2020-01-12 01:00:00 -0.9 3 Este 8 Nordeste 0 976.3 0 94
2020-01-12 00:00:00 0.2 0 Calma 8 Sur 0 976.6 0.4 92
2020-01-11 23:00:00 0.6 5 Sudeste 9 Sudeste 0 976.4 0.1 91
2020-01-11 22:00:00 1.4 5 Sudeste -- -- -- 976.3 0.4 87
2020-01-11 21:00:00 2.1 8 Sudeste 11 Sudeste 0 976.2 0.8 88
2020-01-11 20:00:00 3.7 4 Sudoeste 11 Oeste 0 976.3 1.2 82
2020-01-11 19:00:00 4.7 4 Oeste 8 Noroeste 0 975.9 0.5 81
2020-01-11 18:00:00 6.5 6 Oeste 13 Oeste 0 975.4 -0.3 72
2020-01-11 17:00:00 10.8 4 Oeste 13 Noroeste 0 975.1 -1.3 53
2020-01-11 16:00:00 10.3 7 Noroeste 17 Norte 0 975.4 -1.8 52
2020-01-11 15:00:00 10.3 9 Norte 21 Noroeste 0 975.7 -2.6 52
2020-01-11 14:00:00 10.3 12 Noroeste 21 Oeste 0 976.4 -2.4 56
2020-01-11 13:00:00 9.5 10 Noroeste 21 Noroeste 0 977.2 -1.3 56
2020-01-11 12:00:00 8.2 2 Norte 8 Nordeste 0 978.3 -0.1 65
2020-01-11 11:00:00 5.9 3 Este 5 Sudeste 0 978.8 0.6 74
2020-01-11 10:00:00 2.5 3 Sudeste 11 Sudeste 0 978.5 0.6 86
2020-01-11 09:00:00 -0.2 5 Noroeste 9 Sudeste 0 978.4 0.6 91
2020-01-11 08:00:00 0.6 2 Noroeste 9 Noroeste 0 978.2 -0.2 91
2020-01-11 07:00:00 0.6 0 Calma 13 Norte 0 977.9 -1 92
2020-01-11 06:00:00 1.1 9 Norte 11 Norte 0 977.8 -1.3 90
2020-01-11 05:00:00 0.8 4 Sudeste 9 Sudeste 0 978.4 -0.3 91
2020-01-11 04:00:00 2 6 Sur 17 Norte 0 978.9 -0.2 86
2020-01-11 03:00:00 3.6 13 Norte 18 Norte 0 979.1 -0.1 83
2020-01-11 02:00:00 3.8 9 Noroeste 17 Noroeste 0 978.7 -0.3 82
2020-01-11 01:00:00 4.5 8 Oeste 21 Oeste 0 979.1 0.5 84
2020-01-11 00:00:00 4.3 3 Sudoeste 11 Oeste 0 979.2 1 81
2020-01-10 23:00:00 5.2 5 Oeste 33 Norte 0 979 1.1 79
2020-01-10 22:00:00 5.9 9 Norte 37 Norte 0 978.6 1.2 78
2020-01-10 21:00:00 6.4 21 Norte 35 Norte 0 978.2 1.3 76
2020-01-10 20:00:00 5.5 11 Noroeste 22 Norte 0 977.9 1.7 87
2020-01-10 19:00:00 6 14 Noroeste 30 Norte 0 977.4 1.8 84
2020-01-10 18:00:00 6.4 15 Noroeste 41 Norte 0 976.9 1.8 82
2020-01-10 17:00:00 7.5 28 Norte 45 Norte 0 976.2 0.8 75
2020-01-10 16:00:00 8.2 27 Norte 42 Noroeste 0 975.6 0.1 73
2020-01-10 15:00:00 8.7 23 Norte 33 Norte 0 975.1 -0.5 75
2020-01-10 14:00:00 8.3 24 Noroeste 33 Noroeste 0 975.4 -0.3 80
2020-01-10 13:00:00 7.6 15 Noroeste 22 Noroeste 0 975.5 0.3 88
2020-01-10 12:00:00 8.6 14 Noroeste 28 Noroeste 0 975.6 1 81
2020-01-10 11:00:00 6.9 14 Noroeste 28 Noroeste 0 975.7 1.3 84
2020-01-10 10:00:00 6 11 Noroeste 17 Noroeste 0 975.2 1 89
2020-01-10 09:00:00 5.3 7 Norte 11 Norte 0 974.6 1.2 88
2020-01-10 08:00:00 4.6 4 Sudoeste 15 Noroeste 0.2 974.4 1.4 89
2020-01-10 07:00:00 5.1 12 Noroeste 26 Norte 0.1 974.2 1.1 86
2020-01-10 06:00:00 5.9 15 Norte 21 Norte 0 973.4 0.7 80
2020-01-10 05:00:00 6.5 4 Nordeste 17 Norte 0 973 0.9 79
2020-01-10 04:00:00 6.7 14 Noroeste 33 Norte 0 973.1 0.7 80
2020-01-10 03:00:00 7 14 Norte 24 Norte 0 972.7 0.2 80
2020-01-10 02:00:00 6.9 12 Norte 22 Norte 0 972.1 0 80
2020-01-10 01:00:00 6.7 7 Nordeste 17 Norte 0 972.4 0.9 83
2020-01-10 00:00:00 6.4 9 Norte 18 Norte 0 972.5 1 88
2020-01-09 23:00:00 4.9 4 Norte 11 Sudoeste 0.5 972.1 0.8 97
2020-01-09 22:00:00 4.8 6 Sudeste 9 Sudeste 0.9 971.5 -0.6 96
2020-01-09 21:00:00 4.9 6 Sur 9 Sur 0 971.5 0.7 95
2020-01-09 20:00:00 4.7 8 Sur 18 Sur 0.1 971.3 1 95
2020-01-09 19:00:00 4.9 7 Sudeste 11 Sudeste 0 972.1 2.8 90
2020-01-09 18:00:00 4.5 3 Este 13 Norte 0 970.8 0.2 92
2020-01-09 17:00:00 5.3 10 Norte 17 Noroeste 0 970.3 -0.2 87
2020-01-09 16:00:00 6.5 8 Nordeste 15 Noroeste 0 969.3 -3.1 84
2020-01-09 15:00:00 6.6 14 Noroeste 22 Noroeste 0 970.6 -2.3 84
2020-01-09 14:00:00 6.7 5 Nordeste 11 Este 0 970.5 -3.3 83
2020-01-09 13:00:00 5 5 Noroeste 11 Noroeste 0 972.4 -1.5 91
2020-01-09 12:00:00 3.5 3 Este 13 Este 0 972.9 -0.5 98
2020-01-09 11:00:00 2.9 9 Este 13 Nordeste 0 973.8 -0.1 99
2020-01-09 10:00:00 2.4 0 Calma 11 Noroeste 0 973.9 -0.1 99
2020-01-09 09:00:00 2.1 6 Norte 11 Este 0 973.4 -0.5 99
2020-01-09 08:00:00 1.8 6 Este 11 Este 0 973.9 -0.6 99
2020-01-09 07:00:00 2 2 Nordeste 8 Nordeste 0 974 -1.1 99
2020-01-09 06:00:00 2 5 Este 11 Sudeste 0 973.9 -1.6 99
2020-01-09 05:00:00 1.9 4 Este 11 Sudeste 0 974.5 -1 99
2020-01-09 04:00:00 2.1 4 Sudoeste 11 Oeste 0 975.1 -0.5 99
2020-01-09 03:00:00 2.1 3 Sur 17 Sudeste 0 975.5 -0.4 99
2020-01-09 02:00:00 1.7 11 Sur 21 Sur 0 975.5 -0.6 99
2020-01-09 01:00:00 2.1 13 Sudeste 22 Sur 0 975.6 -0.4 98
2020-01-09 00:00:00 2.3 17 Sur 24 Sur 0 975.9 -0.1 98
2020-01-08 23:00:00 2.5 17 Sur 24 Sur 0 976.1 0.1 97
2020-01-08 22:00:00 2.4 10 Sur 13 Sur 0 976 0.1 93
2020-01-08 21:00:00 3.5 4 Sudeste 11 Este 0 976 0.3 90
2020-01-08 20:00:00 4.8 6 Sudeste 11 Sudeste 0 976 0.8 82
2020-01-08 19:00:00 6.6 4 Este 8 Este 0 975.9 0.9 77
2020-01-08 18:00:00 8.3 4 Nordeste 15 Nordeste 0 975.7 0.7 67
2020-01-08 17:00:00 11.1 7 Este 15 Nordeste 0 975.2 0 59
2020-01-08 16:00:00 14.8 7 Sudoeste 22 Sudoeste 0 975 -0.7 46
2020-01-08 15:00:00 15.3 14 Sur 18 Sur 0 975 -1.4 55
2020-01-08 14:00:00 14.9 14 Sur 21 Sur 0 975.2 -1.7 62
2020-01-08 13:00:00 15.4 3 Sur 9 Sur 0 975.7 -0.8 61
2020-01-08 12:00:00 14 4 Sur 9 Sudeste 0 976.4 0.6 66
2020-01-08 11:00:00 11.4 6 Sudeste 11 Sur 0 976.9 1.7 77
2020-01-08 10:00:00 7.3 4 Sudeste 17 Sur 0 976.5 1.5 89
2020-01-08 09:00:00 5.5 3 Oeste 11 Noroeste 0 975.8 0.9 93
2020-01-08 08:00:00 6.5 10 Noroeste 15 Noroeste 0 975.2 0.1 90
2020-01-08 07:00:00 5.5 5 Este 11 Sudeste 0 975 -0.4 90
2020-01-08 06:00:00 5.6 5 Norte 13 Noroeste 0 974.9 -0.7 90
2020-01-08 05:00:00 5.1 2 Sudeste 9 Sudeste 0 975.1 -0.6 95
2020-01-08 04:00:00 4.5 4 Este 9 Sudeste 0 975.4 -0.8 93
2020-01-08 03:00:00 5.4 3 Sudeste 15 Noroeste 0 975.6 -1 89
2020-01-08 02:00:00 6.3 11 Norte 17 Norte 0 975.7 -0.9 92
2020-01-08 01:00:00 4.2 3 Norte 8 Norte 0 976.2 -0.3 94
2020-01-08 00:00:00 5 4 Sur 8 Sur 0 976.6 0.1 92
2020-01-07 23:00:00 5.5 6 Sudeste 8 Sudeste 0 976.6 0.4 91
2020-01-07 22:00:00 6.6 4 Sudeste 15 Norte 0 976.5 0.4 89
2020-01-07 21:00:00 7.9 8 Norte 13 Norte 0 976.5 1 84
2020-01-07 20:00:00 9.3 5 Norte 18 Norte 0 976.2 0.9 79
2020-01-07 19:00:00 11.1 13 Noroeste 24 Noroeste 0 976.1 0.9 73
2020-01-07 18:00:00 12.4 17 Norte 28 Norte 0 975.5 0.1 70
2020-01-07 17:00:00 13.6 5 Norte 11 Norte 0 975.3 -0.8 66
2020-01-07 16:00:00 13.7 3 Noroeste 8 Norte 0 975.2 -2.1 65
2020-01-07 15:00:00 12.7 2 Oeste 8 Sur 0 975.4 -2.8 63
2020-01-07 14:00:00 11.1 4 Sudoeste 9 Sudoeste 0 976.1 -2.4 66
2020-01-07 13:00:00 9.2 6 Sur 9 Sur 0 977.3 -1 72
2020-01-07 12:00:00 6.1 3 Oeste 5 Noroeste 0 978.2 0.4 84
2020-01-07 11:00:00 3.6 0 Calma 8 Norte 0 978.5 0.7 89
2020-01-07 10:00:00 0.6 4 Norte -- -- 0 978.3 0.8 95
2020-01-07 09:00:00 -1 4 Sudeste 8 Este 0 977.8 0.3 97
2020-01-07 08:00:00 -0.8 6 Sudeste 8 Sudeste 0 977.8 0.4 98
2020-01-07 07:00:00 -1.1 0 Calma 5 Este 0 977.5 0 96
2020-01-07 06:00:00 -0.7 3 Este 8 Este 0 977.5 -0.5 96
2020-01-07 05:00:00 -0.3 3 Este 8 Sudeste 0 977.4 -0.5 96
2020-01-07 04:00:00 0.8 5 Sur 9 Sudeste 0 977.5 -0.7 97
2020-01-07 03:00:00 -0.1 3 Sudoeste 9 Sur 0 978 0.2 97
2020-01-07 02:00:00 -0.1 0 Calma 8 Sudeste 0 977.9 0.2 96
2020-01-07 01:00:00 -0.5 4 Sudoeste 9 Sudoeste 0 978.2 0.2 96
2020-01-07 00:00:00 0.6 0 Calma 8 Sudeste 0 977.8 -0.1 96
2020-01-06 23:00:00 0.6 6 Sudeste 13 Sur 0 977.7 0.7 94
2020-01-06 22:00:00 0.9 8 Sur 13 Sur 0 978 1.5 96
2020-01-06 21:00:00 0.3 2 Norte 9 Sur 0 977.9 2.3 95
2020-01-06 20:00:00 1.2 6 Sudeste 9 Sudeste 0 977 2.4 93
2020-01-06 19:00:00 1.9 0 Calma 9 Oeste 0 976.5 1.8 92
2020-01-06 18:00:00 3.5 8 Oeste 15 Oeste 0 975.6 1.1 85
2020-01-06 17:00:00 7.8 8 Noroeste 9 Noroeste 0 974.6 -0.4 73
2020-01-06 16:00:00 7.8 6 Noroeste 11 Noroeste 0 974.7 -1.4 73
2020-01-06 15:00:00 7.3 4 Este 9 Sudeste 0 974.5 -2.4 69
2020-01-06 14:00:00 6.5 7 Sur 11 Sudeste 0 975 -2 73
2020-01-06 13:00:00 3.2 3 Oeste 8 Noroeste 0 976.1 -0.6 90
2020-01-06 12:00:00 1.1 5 Noroeste 9 Sudeste 0 976.9 0.4 97
2020-01-06 11:00:00 -0.2 5 Sudeste 15 Sur 0 977 1.4 98
2020-01-06 10:00:00 -1.2 4 Sudoeste 11 Sur 0 976.7 1.6 98